Time;durP1;ratioP1;P1;durP2;ratioP2;P2;SDS_P1;SDS_P2;PMS_P1;PMS_P2;Temp;Humidity;BMP_temperature;BMP_pressure;BME280_temperature;BME280_humidity;BME280_pressure;Samples;Min_cycle;Max_cycle;Signal;HPM_P1;HPM_P2
2022/09/09 00:02:02;;;;;;;3.38;1.23;;;15.00;89.40;;;;;;5019246;28;20381;-67
2022/09/09 00:04:34;;;;;;;5.82;1.35;;;15.00;88.90;;;;;;5032561;28;20360;-68
2022/09/09 00:07:38;;;;;;;4.38;1.55;;;15.20;88.70;;;;;;5019106;28;20029;-67
2022/09/09 00:10:16;;;;;;;3.35;1.20;;;15.30;88.50;;;;;;5011771;28;20315;-67
2022/09/09 00:12:55;;;;;;;5.70;1.15;;;15.50;88.10;;;;;;5005465;28;20153;-67
2022/09/09 00:15:25;;;;;;;6.70;1.10;;;15.50;88.00;;;;;;5015883;28;20120;-68
2022/09/09 00:17:55;;;;;;;5.18;1.05;;;15.40;88.50;;;;;;5024986;28;20030;-68
2022/09/09 00:20:24;;;;;;;8.20;1.42;;;15.30;89.30;;;;;;5019213;28;20071;-67
2022/09/09 00:23:12;;;;;;;6.60;1.13;;;15.20;89.50;;;;;;5025203;28;20022;-67
2022/09/09 00:25:53;;;;;;;6.97;1.27;;;15.00;90.40;;;;;;5025937;28;20171;-67
2022/09/09 00:28:23;;;;;;;5.80;1.45;;;14.90;90.50;;;;;;5019930;28;20026;-66
2022/09/09 00:30:51;;;;;;;3.83;1.20;;;14.80;91.00;;;;;;5005726;28;20218;-67
2022/09/09 00:33:23;;;;;;;7.97;1.30;;;14.80;91.00;;;;;;5023826;28;20022;-67
2022/09/09 00:35:53;;;;;;;6.03;1.40;;;14.70;91.00;;;;;;5032765;28;20029;-68
2022/09/09 00:38:51;;;;;;;4.88;1.40;;;14.70;91.10;;;;;;5014532;28;20036;-68
2022/09/09 00:42:02;;;;;;;3.53;1.15;;;14.70;91.10;;;;;;5019078;28;20040;-68
2022/09/09 00:44:36;;;;;;;4.32;1.33;;;14.90;90.90;;;;;;4975902;28;20050;-68
2022/09/09 00:47:09;;;;;;;4.80;1.30;;;15.00;90.70;;;;;;5019255;28;20076;-68
2022/09/09 00:50:13;;;;;;;4.47;1.20;;;15.00;90.70;;;;;;5025212;28;20099;-67
2022/09/09 00:52:50;;;;;;;4.43;1.30;;;15.00;90.60;;;;;;5011312;28;20041;-66
2022/09/09 00:55:19;;;;;;;4.85;1.58;;;15.10;90.80;;;;;;5013059;28;20328;-66
2022/09/09 00:57:46;;;;;;;3.38;1.40;;;15.00;91.10;;;;;;5021165;28;20101;-67
2022/09/09 01:00:15;;;;;;;5.57;1.23;;;14.90;91.10;;;;;;5016464;28;20037;-68
2022/09/09 01:02:59;;;;;;;4.07;1.35;;;14.90;91.30;;;;;;5017593;28;20029;-68
2022/09/09 01:05:42;;;;;;;;;;;14.90;91.40;;;;;;5019824;28;20038;-68
2022/09/09 01:08:30;;;;;;;5.65;1.38;;;14.90;91.30;;;;;;4993885;28;19948;-67
2022/09/09 01:10:58;;;;;;;4.30;1.30;;;14.90;91.20;;;;;;4991853;28;20394;-68
2022/09/09 01:13:33;;;;;;;4.18;1.15;;;14.90;91.10;;;;;;4991952;28;20051;-67
2022/09/09 01:16:05;;;;;;;5.15;1.38;;;14.90;91.10;;;;;;4993591;28;21606;-67
2022/09/09 01:18:44;;;;;;;5.60;1.30;;;15.00;90.90;;;;;;4992680;28;20068;-67
2022/09/09 01:21:28;;;;;;;4.90;1.33;;;15.00;91.00;;;;;;4991297;28;20050;-67
2022/09/09 01:24:13;;;;;;;5.97;1.50;;;14.90;91.40;;;;;;4992659;28;20087;-68
2022/09/09 01:26:43;;;;;;;4.53;1.27;;;15.00;91.10;;;;;;4991880;28;20033;-68
2022/09/09 01:29:11;;;;;;;6.13;1.38;;;15.00;91.40;;;;;;5000036;28;20026;-67
2022/09/09 01:31:52;;;;;;;6.72;1.40;;;14.90;91.50;;;;;;5009989;28;20121;-67
2022/09/09 01:34:19;;;;;;;4.63;1.20;;;14.80;92.00;;;;;;5020424;28;20104;-68
2022/09/09 01:37:06;;;;;;;5.93;1.70;;;14.80;92.20;;;;;;5023982;28;20041;-68
2022/09/09 01:39:34;;;;;;;4.50;1.20;;;14.80;92.20;;;;;;5016676;28;20450;-68
2022/09/09 01:41:59;;;;;;;5.78;1.30;;;14.80;92.30;;;;;;5021713;28;20418;-67
2022/09/09 01:44:26;;;;;;;7.00;1.30;;;14.70;92.40;;;;;;5022840;28;20037;-68
2022/09/09 01:46:52;;;;;;;5.47;1.38;;;14.70;92.60;;;;;;5011528;28;20379;-68
2022/09/09 01:49:18;;;;;;;6.70;1.70;;;14.70;92.60;;;;;;5006936;28;20022;-68
2022/09/09 01:51:49;;;;;;;6.55;1.80;;;14.70;92.50;;;;;;5003821;28;20026;-68
2022/09/09 01:54:15;;;;;;;5.50;1.20;;;14.90;91.70;;;;;;5014269;28;20109;-68
2022/09/09 01:56:47;;;;;;;4.90;1.50;;;15.00;91.50;;;;;;5016028;28;20112;-68
2022/09/09 01:59:42;;;;;;;5.07;1.30;;;14.90;91.10;;;;;;5010248;28;20029;-68
2022/09/09 02:02:17;;;;;;;7.20;1.60;;;14.90;91.30;;;;;;5005314;28;20029;-67
2022/09/09 02:04:54;;;;;;;5.80;1.15;;;15.00;91.20;;;;;;5026184;28;20026;-68
2022/09/09 02:07:25;;;;;;;5.25;1.20;;;14.90;91.80;;;;;;5013612;28;20065;-68
2022/09/09 02:10:07;;;;;;;5.63;1.30;;;14.90;92.50;;;;;;5022119;28;20029;-68
2022/09/09 02:12:39;;;;;;;7.13;1.60;;;15.00;91.80;;;;;;5017435;28;20101;-69
2022/09/09 02:15:12;;;;;;;4.85;1.60;;;15.00;92.20;;;;;;5015724;28;20065;-68
2022/09/09 02:17:42;;;;;;;3.67;1.38;;;14.90;93.20;;;;;;5013996;28;20054;-68
2022/09/09 02:20:12;;;;;;;3.85;1.60;;;14.70;94.30;;;;;;5022589;28;20023;-68
2022/09/09 02:22:42;;;;;;;5.90;1.77;;;14.30;95.30;;;;;;5014121;28;20025;-68
2022/09/09 02:25:14;;;;;;;8.90;1.52;;;14.10;95.80;;;;;;5016619;28;20428;-68
2022/09/09 02:27:47;;;;;;;4.93;1.25;;;14.00;96.10;;;;;;5017252;28;20052;-68
2022/09/09 02:30:14;;;;;;;5.65;1.40;;;13.90;96.80;;;;;;5019497;28;20045;-68
2022/09/09 02:32:43;;;;;;;4.05;1.33;;;13.80;97.00;;;;;;5016083;28;20054;-68
2022/09/09 02:35:15;;;;;;;5.63;1.58;;;13.70;97.50;;;;;;5013608;28;20056;-68
2022/09/09 02:37:45;;;;;;;7.53;2.10;;;13.70;97.40;;;;;;5015869;28;20573;-68
2022/09/09 02:40:14;;;;;;;3.97;1.42;;;13.70;97.50;;;;;;5014482;28;20033;-68
2022/09/09 02:42:45;;;;;;;6.75;1.60;;;13.60;97.60;;;;;;5011732;28;20057;-68
2022/09/09 02:45:15;;;;;;;8.32;1.65;;;13.50;97.40;;;;;;5004986;28;20113;-68
2022/09/09 02:47:48;;;;;;;6.80;1.55;;;13.60;97.40;;;;;;5018850;28;20049;-68
2022/09/09 02:50:25;;;;;;;5.00;1.80;;;13.60;97.20;;;;;;5021823;28;20030;-68
2022/09/09 02:53:29;;;;;;;5.50;1.55;;;13.70;96.90;;;;;;5005312;28;20021;-67
2022/09/09 02:56:01;;;;;;;4.80;1.52;;;13.70;97.00;;;;;;5014271;28;20032;-68
2022/09/09 02:58:28;;;;;;;6.32;1.73;;;13.70;97.30;;;;;;5007323;28;20110;-68
2022/09/09 03:00:54;;;;;;;6.65;1.60;;;13.70;97.50;;;;;;5012568;28;20029;-67
2022/09/09 03:03:21;;;;;;;5.18;1.55;;;13.80;97.40;;;;;;5017162;28;20026;-68
2022/09/09 03:05:47;;;;;;;5.90;1.48;;;13.80;97.30;;;;;;5016052;28;20021;-68
2022/09/09 03:08:13;;;;;;;4.13;1.50;;;13.80;97.40;;;;;;5022066;28;20079;-68
2022/09/09 03:10:39;;;;;;;6.13;1.42;;;13.90;97.60;;;;;;4995450;28;20076;-68
2022/09/09 03:13:05;;;;;;;5.03;1.50;;;13.80;97.70;;;;;;5016283;28;20042;-68
2022/09/09 03:15:32;;;;;;;5.88;1.75;;;13.80;97.60;;;;;;5025666;28;20120;-67
2022/09/09 03:17:58;;;;;;;7.25;1.63;;;13.70;97.80;;;;;;5019403;28;20049;-68
2022/09/09 03:20:28;;;;;;;6.63;2.00;;;13.60;97.30;;;;;;5015505;28;20461;-70
2022/09/09 03:22:55;;;;;;;6.63;1.75;;;13.50;97.60;;;;;;5018062;28;20109;-69
2022/09/09 03:25:23;;;;;;;7.25;2.10;;;13.40;97.10;;;;;;5013781;28;20383;-69
2022/09/09 03:27:50;;;;;;;4.43;1.70;;;13.30;95.90;;;;;;5024143;28;20022;-69
2022/09/09 03:30:16;;;;;;;6.93;2.00;;;13.20;95.10;;;;;;5020886;28;20030;-69
2022/09/09 03:32:47;;;;;;;5.47;1.98;;;13.10;93.40;;;;;;5022350;28;20075;-69
2022/09/09 03:35:16;;;;;;;5.18;1.70;;;13.00;92.00;;;;;;5020732;28;20037;-69
2022/09/09 03:37:45;;;;;;;7.30;2.65;;;12.90;91.20;;;;;;5016684;28;20025;-69
2022/09/09 03:40:11;;;;;;;4.28;2.00;;;12.90;90.30;;;;;;5017488;28;20030;-69
2022/09/09 03:42:38;;;;;;;7.93;2.10;;;12.80;90.70;;;;;;5021244;28;20053;-69
2022/09/09 03:45:05;;;;;;;8.65;2.20;;;12.80;89.50;;;;;;5026384;28;20033;-69
2022/09/09 03:47:31;;;;;;;8.20;2.10;;;12.80;88.60;;;;;;5016949;28;20450;-69
2022/09/09 03:49:57;;;;;;;8.32;2.60;;;12.70;87.90;;;;;;5017299;28;20026;-69
2022/09/09 03:52:24;;;;;;;7.60;2.63;;;12.60;86.40;;;;;;5027570;28;20081;-69
2022/09/09 03:54:53;;;;;;;7.20;2.72;;;12.60;85.90;;;;;;5019666;28;20014;-69
2022/09/09 03:57:20;;;;;;;9.07;2.47;;;12.60;84.90;;;;;;5016545;28;20330;-69
2022/09/09 03:59:46;;;;;;;10.07;2.63;;;12.60;84.90;;;;;;5015623;28;20026;-68
2022/09/09 04:02:15;;;;;;;6.53;2.35;;;12.50;84.80;;;;;;5013852;28;20040;-68
2022/09/09 04:04:41;;;;;;;7.65;2.22;;;12.40;84.40;;;;;;5023814;28;20022;-68
2022/09/09 04:07:06;;;;;;;9.63;2.70;;;12.40;84.20;;;;;;5004289;28;20435;-67
2022/09/09 04:09:33;;;;;;;7.07;2.53;;;12.30;84.40;;;;;;5017511;28;20025;-68
2022/09/09 04:11:58;;;;;;;7.57;2.75;;;12.30;84.70;;;;;;5017636;28;20076;-67
2022/09/09 04:14:28;;;;;;;8.60;4.43;;;12.30;84.00;;;;;;5006028;28;20362;-67
2022/09/09 04:16:59;;;;;;;6.63;2.63;;;12.20;83.50;;;;;;5018330;28;20366;-68
2022/09/09 04:19:25;;;;;;;7.25;2.35;;;12.20;82.70;;;;;;5024379;28;20103;-69
2022/09/09 04:21:53;;;;;;;9.48;3.33;;;12.20;82.50;;;;;;5023141;28;20029;-69
2022/09/09 04:24:19;;;;;;;9.80;3.30;;;12.20;82.40;;;;;;5017857;28;20120;-69
2022/09/09 04:26:45;;;;;;;5.97;2.70;;;12.10;82.10;;;;;;5023755;28;20065;-68
2022/09/09 04:29:11;;;;;;;6.32;3.00;;;12.10;81.00;;;;;;5019994;28;20048;-69
2022/09/09 04:31:41;;;;;;;8.93;2.97;;;12.10;80.40;;;;;;5019180;28;20321;-69
2022/09/09 04:34:08;;;;;;;11.05;3.03;;;12.00;80.50;;;;;;5027760;28;20028;-69
2022/09/09 04:36:34;;;;;;;8.60;3.42;;;12.00;80.30;;;;;;5009664;28;20083;-69
2022/09/09 04:39:01;;;;;;;8.20;3.17;;;12.10;79.70;;;;;;5028775;28;20120;-69
2022/09/09 04:41:27;;;;;;;5.75;2.80;;;12.10;80.00;;;;;;5029923;28;20022;-68
2022/09/09 04:43:53;;;;;;;10.23;3.03;;;12.20;79.70;;;;;;5016643;28;20033;-68
2022/09/09 04:46:20;;;;;;;5.40;3.10;;;12.20;80.40;;;;;;5014839;28;20049;-68
2022/09/09 04:48:45;;;;;;;6.32;3.25;;;12.20;80.40;;;;;;5025481;28;20026;-68
2022/09/09 04:51:13;;;;;;;6.43;2.53;;;12.20;80.20;;;;;;5028101;28;20036;-68
2022/09/09 04:53:40;;;;;;;8.45;3.10;;;12.20;80.20;;;;;;5032976;28;20041;-68
2022/09/09 04:56:11;;;;;;;8.07;2.60;;;12.20;80.50;;;;;;5009073;28;20045;-68
2022/09/09 04:58:38;;;;;;;8.07;2.40;;;12.20;80.10;;;;;;5015969;28;20025;-68
2022/09/09 05:01:21;;;;;;;5.53;2.50;;;12.20;80.20;;;;;;5014443;28;20109;-68
2022/09/09 05:03:49;;;;;;;9.05;2.70;;;12.20;81.10;;;;;;5022115;28;20030;-69
2022/09/09 05:06:17;;;;;;;7.63;3.10;;;12.30;80.30;;;;;;5015459;28;20481;-68
2022/09/09 05:08:43;;;;;;;6.55;2.63;;;12.30;80.70;;;;;;5026816;28;20030;-68
2022/09/09 05:11:16;;;;;;;9.95;2.65;;;12.40;80.00;;;;;;5014673;28;20152;-68
2022/09/09 05:13:42;;;;;;;7.35;2.67;;;12.40;81.40;;;;;;5007508;28;20019;-68
2022/09/09 05:16:10;;;;;;;8.13;2.65;;;12.50;82.00;;;;;;5007018;28;20032;-68
2022/09/09 05:18:39;;;;;;;11.05;2.70;;;12.50;82.60;;;;;;5025876;28;20030;-68
2022/09/09 05:21:06;;;;;;;9.10;2.63;;;12.60;83.80;;;;;;5008332;28;20354;-68
2022/09/09 05:23:33;;;;;;;7.65;2.20;;;12.70;84.90;;;;;;5016218;28;20108;-67
2022/09/09 05:25:59;;;;;;;10.18;2.85;;;12.70;85.50;;;;;;5027983;28;20033;-68
2022/09/09 05:28:26;;;;;;;5.75;2.17;;;12.80;86.50;;;;;;5009614;28;20046;-68
2022/09/09 05:31:05;;;;;;;4.60;1.98;;;12.90;88.40;;;;;;5017193;28;20343;-68
2022/09/09 05:33:31;;;;;;;5.68;2.10;;;13.00;89.60;;;;;;5009040;28;20347;-68
2022/09/09 05:36:01;;;;;;;7.65;2.20;;;13.00;90.30;;;;;;5018340;28;20101;-68
2022/09/09 05:38:27;;;;;;;10.63;2.67;;;13.10;90.20;;;;;;5028862;28;20025;-68
2022/09/09 05:40:59;;;;;;;9.52;2.40;;;13.10;90.20;;;;;;5016850;28;20029;-68
2022/09/09 05:43:25;;;;;;;5.90;2.05;;;13.20;91.40;;;;;;5016094;28;20116;-68
2022/09/09 05:46:04;;;;;;;6.72;2.42;;;13.30;92.50;;;;;;5017383;28;20034;-68
2022/09/09 05:48:34;;;;;;;8.10;2.17;;;13.30;93.20;;;;;;5017046;28;20032;-68
2022/09/09 05:51:01;;;;;;;5.50;1.80;;;13.40;93.30;;;;;;5017480;28;20028;-68
2022/09/09 05:53:32;;;;;;;7.10;1.90;;;13.40;92.70;;;;;;5017385;28;20107;-68
2022/09/09 05:56:03;;;;;;;7.10;1.83;;;13.50;95.80;;;;;;5016036;28;20057;-68
2022/09/09 05:58:35;;;;;;;9.05;2.58;;;13.60;95.20;;;;;;5016072;28;20022;-68
2022/09/09 06:01:06;;;;;;;6.75;1.83;;;13.70;95.20;;;;;;5017321;28;20034;-68
2022/09/09 06:03:34;;;;;;;6.13;2.00;;;13.70;96.30;;;;;;5017273;28;20358;-68
2022/09/09 06:06:01;;;;;;;5.07;1.60;;;13.80;95.90;;;;;;5016025;28;20038;-67
2022/09/09 06:08:27;;;;;;;7.50;1.60;;;13.90;96.90;;;;;;5017163;28;20022;-68
2022/09/09 06:10:53;;;;;;;6.00;2.10;;;14.00;96.90;;;;;;5014782;28;20022;-68
2022/09/09 06:13:19;;;;;;;7.03;1.90;;;14.20;96.10;;;;;;4998297;28;20310;-68
2022/09/09 06:15:51;;;;;;;7.50;1.75;;;14.30;97.80;;;;;;5016970;28;20026;-68
2022/09/09 06:18:18;;;;;;;6.10;1.70;;;14.50;98.00;;;;;;4997385;28;20371;-68
2022/09/09 06:21:04;;;;;;;5.43;1.60;;;14.60;97.90;;;;;;5001444;28;20418;-68
2022/09/09 06:23:30;;;;;;;7.20;1.80;;;14.80;98.00;;;;;;5017011;28;20326;-68
2022/09/09 06:26:17;;;;;;;7.43;1.55;;;15.00;97.90;;;;;;5015030;28;20344;-68
2022/09/09 06:28:42;;;;;;;5.60;1.88;;;15.00;98.00;;;;;;5006520;28;20022;-68
2022/09/09 06:31:10;;;;;;;7.03;1.80;;;15.20;98.00;;;;;;5015005;28;20040;-68
2022/09/09 06:33:40;;;;;;;6.65;1.73;;;15.40;98.00;;;;;;5015413;28;20045;-68
2022/09/09 06:36:17;;;;;;;7.90;1.75;;;15.40;98.00;;;;;;5015782;28;20029;-68
2022/09/09 06:38:44;;;;;;;5.05;1.52;;;15.40;98.00;;;;;;5015835;28;20054;-68
2022/09/09 06:41:12;;;;;;;6.05;1.60;;;15.50;98.00;;;;;;5016881;28;20485;-68
2022/09/09 06:43:38;;;;;;;7.72;1.58;;;15.50;98.00;;;;;;5035207;28;20108;-68
2022/09/09 06:46:03;;;;;;;5.05;1.55;;;15.60;98.00;;;;;;5034809;28;20125;-68
2022/09/09 06:48:36;;;;;;;7.25;1.88;;;15.70;98.00;;;;;;5015205;28;20505;-68
2022/09/09 06:51:01;;;;;;;5.35;1.60;;;15.80;98.00;;;;;;5024075;28;20461;-68
2022/09/09 06:53:28;;;;;;;6.10;1.80;;;15.90;98.00;;;;;;5016475;28;20034;-68
2022/09/09 06:55:54;;;;;;;7.68;1.58;;;16.00;98.00;;;;;;5014615;28;20075;-68
2022/09/09 06:58:21;;;;;;;5.82;1.90;;;16.10;98.00;;;;;;5035070;28;20357;-68
2022/09/09 07:00:47;;;;;;;4.88;1.50;;;16.30;98.00;;;;;;5033001;28;20107;-67
2022/09/09 07:03:13;;;;;;;4.22;1.30;;;16.40;98.00;;;;;;5016027;28;20064;-67
2022/09/09 07:05:39;;;;;;;5.45;1.58;;;16.40;97.90;;;;;;5014957;28;20030;-67
2022/09/09 07:08:07;;;;;;;5.93;1.33;;;16.50;97.70;;;;;;5016692;28;20112;-67
2022/09/09 07:10:34;;;;;;;8.82;1.80;;;16.70;96.60;;;;;;5033468;28;20021;-67
2022/09/09 07:13:01;;;;;;;8.57;1.45;;;16.80;96.70;;;;;;5032644;28;20312;-68
2022/09/09 07:15:27;;;;;;;5.20;1.48;;;17.00;97.10;;;;;;5035818;28;20036;-68
2022/09/09 07:17:53;;;;;;;7.35;1.52;;;17.00;95.60;;;;;;5030226;28;20342;-68
2022/09/09 07:20:20;;;;;;;3.63;1.13;;;17.10;94.70;;;;;;5013958;28;20026;-69
2022/09/09 07:22:45;;;;;;;5.90;1.23;;;17.40;95.40;;;;;;5016181;28;20022;-68
2022/09/09 07:25:11;;;;;;;3.67;1.17;;;17.60;94.00;;;;;;5016336;28;20438;-68
2022/09/09 07:27:37;;;;;;;6.65;1.30;;;17.80;93.90;;;;;;5014695;28;20422;-69
2022/09/09 07:30:03;;;;;;;11.32;2.13;;;18.00;93.40;;;;;;5028262;28;20022;-68
2022/09/09 07:32:30;;;;;;;4.72;1.55;;;18.10;91.40;;;;;;5031123;28;20022;-68
2022/09/09 07:34:57;;;;;;;4.75;1.30;;;17.90;93.30;;;;;;5019687;28;20314;-68
2022/09/09 07:37:24;;;;;;;5.85;1.50;;;18.20;92.70;;;;;;5013845;28;20034;-68
2022/09/09 07:39:50;;;;;;;7.85;1.40;;;18.40;91.20;;;;;;5015960;28;20037;-68
2022/09/09 07:42:16;;;;;;;5.78;1.30;;;18.30;90.90;;;;;;5031771;28;20030;-68
2022/09/09 07:44:42;;;;;;;7.05;1.30;;;18.30;91.10;;;;;;5035676;28;20413;-68
2022/09/09 07:47:08;;;;;;;8.45;1.50;;;18.50;89.60;;;;;;5017145;28;20319;-67
2022/09/09 07:49:34;;;;;;;6.78;1.55;;;18.00;89.90;;;;;;5019826;28;20018;-68
2022/09/09 07:52:05;;;;;;;5.75;1.27;;;17.70;91.10;;;;;;5015143;28;20407;-67
2022/09/09 07:54:31;;;;;;;6.60;1.50;;;17.50;91.20;;;;;;5025670;28;20323;-67
2022/09/09 07:56:56;;;;;;;7.32;1.48;;;17.50;92.20;;;;;;5035423;28;20022;-68
2022/09/09 07:59:22;;;;;;;5.93;1.48;;;17.50;92.20;;;;;;5021905;28;20026;-68
2022/09/09 08:01:53;;;;;;;3.97;1.45;;;17.60;93.10;;;;;;5014760;28;20482;-68
2022/09/09 08:04:19;;;;;;;9.45;1.50;;;17.50;92.20;;;;;;5020056;28;20030;-68
2022/09/09 08:06:54;;;;;;;6.18;1.40;;;17.40;93.50;;;;;;5015608;28;20034;-67
2022/09/09 08:09:28;;;;;;;6.57;1.50;;;17.40;93.30;;;;;;5014372;28;20033;-67
2022/09/09 08:11:56;;;;;;;7.38;1.40;;;17.50;94.10;;;;;;5016618;28;20018;-68
2022/09/09 08:14:22;;;;;;;8.43;1.67;;;17.60;93.10;;;;;;5025770;28;20037;-67
2022/09/09 08:16:53;;;;;;;5.95;1.40;;;17.60;92.90;;;;;;5038931;28;20117;-68
2022/09/09 08:19:18;;;;;;;5.47;1.23;;;17.50;93.60;;;;;;5030980;28;20025;-68
2022/09/09 08:21:44;;;;;;;6.18;1.30;;;17.10;94.00;;;;;;5027048;28;20041;-68
2022/09/09 08:24:11;;;;;;;9.20;1.73;;;16.60;95.00;;;;;;5037062;28;20025;-68
2022/09/09 08:26:41;;;;;;;8.52;1.55;;;16.40;96.40;;;;;;5038906;28;20071;-68
2022/09/09 08:29:09;;;;;;;5.75;1.20;;;16.30;97.10;;;;;;5030871;28;20025;-68
2022/09/09 08:31:38;;;;;;;7.50;1.48;;;16.20;96.00;;;;;;5018331;28;20049;-68
2022/09/09 08:34:05;;;;;;;7.60;1.60;;;16.20;95.70;;;;;;5020018;28;20017;-67
2022/09/09 08:36:36;;;;;;;8.30;1.63;;;16.20;96.50;;;;;;5017604;28;20030;-68
2022/09/09 08:39:04;;;;;;;9.32;2.00;;;16.50;97.20;;;;;;5017866;28;20105;-68
2022/09/09 08:41:32;;;;;;;4.32;1.20;;;16.80;95.30;;;;;;5018070;28;20064;-68
2022/09/09 08:44:14;;;;;;;6.93;1.48;;;16.90;95.10;;;;;;5017120;28;20054;-68
2022/09/09 08:46:58;;;;;;;5.90;1.13;;;16.90;94.40;;;;;;4999042;28;20050;-68
2022/09/09 08:49:58;;;;;;;5.43;1.50;;;17.10;93.80;;;;;;5003927;28;20070;-68
2022/09/09 08:52:38;;;;;;;6.63;1.70;;;17.40;93.70;;;;;;5017607;28;20427;-68
2022/09/09 08:55:25;;;;;;;5.43;1.15;;;17.70;93.50;;;;;;5027309;28;20544;-68
2022/09/09 08:57:54;;;;;;;5.95;1.35;;;18.00;92.70;;;;;;5037236;28;20372;-68
2022/09/09 09:00:20;;;;;;;5.78;1.50;;;18.40;93.40;;;;;;5020100;28;20109;-68
2022/09/09 09:03:09;;;;;;;5.25;1.48;;;19.00;89.10;;;;;;5018311;28;20022;-68
2022/09/09 09:05:53;;;;;;;5.22;1.20;;;19.10;88.50;;;;;;5026426;28;20026;-68
2022/09/09 09:08:56;;;;;;;3.15;1.02;;;19.20;87.40;;;;;;5029228;28;20108;-68
2022/09/09 09:11:22;;;;;;;5.25;1.38;;;19.30;88.90;;;;;;5017277;28;20026;-67
2022/09/09 09:14:02;;;;;;;5.95;1.17;;;19.10;87.00;;;;;;5033024;28;20033;-67
2022/09/09 09:16:53;;;;;;;6.45;1.33;;;18.80;87.40;;;;;;5017030;28;20018;-67
2022/09/09 09:19:22;;;;;;;7.75;1.67;;;18.80;88.20;;;;;;5020488;28;20427;-67
2022/09/09 09:22:46;;;;;;;5.43;1.02;;;19.90;85.40;;;;;;5019269;28;20263;-67
2022/09/09 09:25:21;;;;;;;6.60;1.20;;;21.40;81.50;;;;;;5011714;28;20094;-67
2022/09/09 09:28:17;;;;;;;5.93;1.40;;;22.20;77.30;;;;;;5025090;28;20365;-68
2022/09/09 09:30:48;;;;;;;5.43;1.10;;;22.20;78.40;;;;;;5012556;28;20041;-67
2022/09/09 09:33:14;;;;;;;4.63;1.05;;;22.50;74.00;;;;;;5016565;28;20029;-67
2022/09/09 09:35:40;;;;;;;4.97;1.13;;;22.60;75.30;;;;;;5014829;28;20034;-67
2022/09/09 09:38:27;;;;;;;5.78;1.10;;;22.90;74.10;;;;;;5016484;28;20113;-67
2022/09/09 09:40:58;;;;;;;10.13;1.20;;;22.90;73.50;;;;;;5017560;28;20442;-67
2022/09/09 09:43:31;;;;;;;5.80;1.52;;;23.00;72.00;;;;;;5016400;28;20132;-67
2022/09/09 09:45:58;;;;;;;5.85;1.40;;;23.40;72.30;;;;;;5024053;28;20037;-68
2022/09/09 09:48:25;;;;;;;5.88;1.23;;;23.80;69.10;;;;;;5017432;28;20022;-67
2022/09/09 09:50:58;;;;;;;4.38;1.00;;;22.80;71.50;;;;;;5016419;28;20022;-67
2022/09/09 09:53:31;;;;;;;6.75;1.48;;;21.90;74.20;;;;;;5017624;28;20029;-67
2022/09/09 09:56:14;;;;;;;6.30;1.25;;;21.50;76.40;;;;;;5034905;28;20466;-67
2022/09/09 09:58:46;;;;;;;5.63;1.08;;;21.40;76.30;;;;;;5023714;28;20130;-67
2022/09/09 10:01:24;;;;;;;4.15;1.30;;;21.50;75.30;;;;;;5017431;28;20026;-66
2022/09/09 10:03:55;;;;;;;4.95;1.30;;;21.30;76.60;;;;;;5015132;28;20026;-65
2022/09/09 10:06:38;;;;;;;7.15;1.33;;;20.80;77.80;;;;;;5017178;28;20077;-66
2022/09/09 10:09:20;;;;;;;5.85;1.30;;;20.40;78.80;;;;;;5026775;28;20021;-67
2022/09/09 10:12:16;;;;;;;6.68;1.58;;;20.00;78.80;;;;;;5036989;28;20045;-68
2022/09/09 10:15:13;;;;;;;3.53;1.00;;;19.60;79.60;;;;;;5017445;28;20033;-68
2022/09/09 10:18:13;;;;;;;7.32;1.73;;;19.80;79.60;;;;;;4997366;28;20101;-68
2022/09/09 10:21:15;;;;;;;8.00;1.20;;;20.10;80.50;;;;;;5036777;28;20112;-67
2022/09/09 10:24:18;;;;;;;8.23;1.38;;;21.30;77.30;;;;;;4977694;28;20041;-66
2022/09/09 10:27:05;;;;;;;5.28;1.05;;;22.40;73.40;;;;;;5014559;28;20038;-68
2022/09/09 10:29:47;;;;;;;4.47;1.10;;;21.50;73.00;;;;;;5026191;28;20033;-67
2022/09/09 10:32:46;;;;;;;6.13;1.20;;;21.50;73.80;;;;;;5036518;28;20045;-67
2022/09/09 10:35:29;;;;;;;6.00;1.30;;;21.30;73.30;;;;;;5016592;28;20061;-67
2022/09/09 10:38:00;;;;;;;5.78;1.42;;;20.80;75.60;;;;;;5014698;28;20446;-69
2022/09/09 10:40:32;;;;;;;7.93;1.40;;;20.80;73.80;;;;;;5016359;28;20030;-67
2022/09/09 10:43:35;;;;;;;4.65;1.48;;;21.00;72.70;;;;;;5014496;28;20148;-67
2022/09/09 10:46:27;;;;;;;5.35;1.23;;;21.50;71.70;;;;;;5014873;28;20500;-67
2022/09/09 10:49:12;;;;;;;4.70;0.90;;;22.20;70.10;;;;;;5016504;28;20085;-67
2022/09/09 10:51:58;;;;;;;5.18;1.00;;;22.50;69.20;;;;;;5018008;28;20029;-69
2022/09/09 10:54:39;;;;;;;5.57;1.30;;;22.20;69.70;;;;;;5017562;28;20029;-68
2022/09/09 10:57:25;;;;;;;4.68;1.00;;;21.80;70.20;;;;;;5035208;28;20032;-67
2022/09/09 10:59:57;;;;;;;4.60;1.10;;;22.40;71.50;;;;;;5024861;28;20029;-67
2022/09/09 11:02:30;;;;;;;3.75;0.82;;;22.80;67.80;;;;;;5018532;28;20026;-68
2022/09/09 11:05:16;;;;;;;3.60;1.00;;;22.80;66.40;;;;;;5024403;28;20350;-67
2022/09/09 11:07:52;;;;;;;4.57;1.00;;;22.20;68.90;;;;;;5013925;28;20108;-67
2022/09/09 11:10:21;;;;;;;4.20;1.08;;;22.20;68.10;;;;;;5023114;28;20042;-67
2022/09/09 11:12:49;;;;;;;7.35;1.80;;;22.40;70.00;;;;;;5015005;28;20022;-66
2022/09/09 11:15:45;;;;;;;3.80;0.93;;;22.70;68.90;;;;;;5019959;28;20025;-67
2022/09/09 11:18:19;;;;;;;5.80;1.10;;;22.40;68.70;;;;;;5016520;28;20105;-67
2022/09/09 11:20:48;;;;;;;4.88;1.20;;;22.20;69.50;;;;;;5014931;28;20037;-67
2022/09/09 11:23:22;;;;;;;5.07;1.10;;;22.10;70.60;;;;;;5013239;28;20033;-67
2022/09/09 11:25:58;;;;;;;3.15;0.90;;;23.10;69.00;;;;;;5015989;28;20022;-67
2022/09/09 11:28:44;;;;;;;5.45;0.90;;;23.80;67.40;;;;;;5033087;28;20120;-67
2022/09/09 11:31:37;;;;;;;4.95;1.10;;;24.20;65.20;;;;;;5034017;28;20414;-67
2022/09/09 11:34:40;;;;;;;6.43;1.40;;;24.40;66.40;;;;;;4996601;28;20326;-67
2022/09/09 11:37:12;;;;;;;3.58;0.88;;;25.30;64.20;;;;;;5004400;28;20034;-67
2022/09/09 11:40:04;;;;;;;4.20;0.90;;;25.40;65.20;;;;;;5012824;28;20037;-66
2022/09/09 11:42:30;;;;;;;4.93;1.25;;;24.00;65.40;;;;;;5010712;28;20108;-66
2022/09/09 11:44:56;;;;;;;3.47;0.80;;;21.90;71.10;;;;;;5016133;28;20033;-67
2022/09/09 11:47:34;;;;;;;13.38;1.90;;;21.10;73.40;;;;;;5017425;28;20061;-66
2022/09/09 11:50:26;;;;;;;2.63;0.60;;;20.30;75.40;;;;;;5019789;28;20029;-66
2022/09/09 11:53:13;;;;;;;4.10;0.70;;;19.90;76.30;;;;;;5021636;28;20022;-66
2022/09/09 11:55:39;;;;;;;5.00;0.88;;;19.50;78.40;;;;;;5018665;28;20105;-67
2022/09/09 11:58:15;;;;;;;4.10;1.25;;;19.60;78.50;;;;;;5017455;28;20387;-66
2022/09/09 12:00:46;;;;;;;3.33;0.90;;;19.60;77.50;;;;;;5019711;28;20072;-67
2022/09/09 12:03:36;;;;;;;5.05;1.00;;;20.00;77.10;;;;;;5035254;28;20029;-66
2022/09/09 12:06:13;;;;;;;8.80;1.42;;;20.20;76.70;;;;;;5039226;28;20021;-66
2022/09/09 12:08:42;;;;;;;3.17;0.88;;;20.60;74.30;;;;;;5019391;28;20157;-67
2022/09/09 12:11:08;;;;;;;3.33;0.70;;;20.50;73.80;;;;;;5017792;28;20056;-66
2022/09/09 12:13:34;;;;;;;4.22;1.00;;;20.50;75.40;;;;;;5016951;28;20076;-66
2022/09/09 12:16:02;;;;;;;4.28;1.00;;;20.80;73.80;;;;;;5019319;28;20030;-66
2022/09/09 12:18:44;;;;;;;2.45;0.75;;;21.20;73.00;;;;;;5017511;28;20026;-66
2022/09/09 12:21:23;;;;;;;4.85;1.00;;;21.80;71.10;;;;;;5017165;28;20374;-67
2022/09/09 12:23:53;;;;;;;4.40;1.02;;;21.70;70.20;;;;;;5018129;28;20037;-67
2022/09/09 12:26:38;;;;;;;5.85;1.55;;;21.40;71.80;;;;;;5021634;28;20033;-66
2022/09/09 12:29:24;;;;;;;7.13;1.02;;;20.90;71.50;;;;;;5017066;28;20050;-67
2022/09/09 12:32:08;;;;;;;4.75;1.10;;;20.60;71.40;;;;;;5038305;28;20022;-67
2022/09/09 12:34:44;;;;;;;5.40;1.15;;;21.00;72.40;;;;;;5030863;28;20284;-66
2022/09/09 12:37:40;;;;;;;4.90;1.13;;;21.70;72.00;;;;;;5018731;28;20026;-67
2022/09/09 12:40:29;;;;;;;3.80;1.10;;;21.30;71.60;;;;;;5025702;28;20022;-67
2022/09/09 12:42:55;;;;;;;4.95;1.30;;;20.40;74.40;;;;;;5037437;28;20017;-67
2022/09/09 12:45:26;;;;;;;6.03;1.30;;;20.50;75.20;;;;;;5026924;28;20026;-67
2022/09/09 12:48:02;;;;;;;6.57;1.27;;;19.90;76.60;;;;;;5018614;28;20049;-67
2022/09/09 12:50:32;;;;;;;10.75;1.30;;;19.60;78.20;;;;;;5016631;28;20022;-67
2022/09/09 12:53:08;;;;;;;6.80;1.25;;;19.90;78.90;;;;;;5018576;28;20078;-66
2022/09/09 12:55:37;;;;;;;4.45;0.98;;;20.00;77.30;;;;;;5015724;28;20022;-66
2022/09/09 12:58:05;;;;;;;6.72;1.30;;;20.20;76.80;;;;;;5014261;28;20076;-66
2022/09/09 13:00:33;;;;;;;3.75;0.80;;;20.30;77.10;;;;;;5015615;28;20029;-66
2022/09/09 13:03:01;;;;;;;4.25;1.23;;;20.40;73.70;;;;;;5017228;28;20038;-68
2022/09/09 13:05:33;;;;;;;5.90;1.13;;;20.30;74.40;;;;;;5014778;28;20033;-68
2022/09/09 13:08:08;;;;;;;4.50;1.20;;;20.80;74.40;;;;;;5018269;28;20040;-67
2022/09/09 13:10:59;;;;;;;4.40;1.05;;;20.90;71.60;;;;;;5023588;28;20314;-68
2022/09/09 13:13:43;;;;;;;5.45;1.27;;;20.70;73.60;;;;;;5015952;28;20026;-67
2022/09/09 13:16:31;;;;;;;4.22;1.00;;;21.10;72.50;;;;;;4999922;28;20419;-68
2022/09/09 13:19:06;;;;;;;7.05;1.70;;;21.30;71.40;;;;;;4998726;28;20031;-67
2022/09/09 13:21:37;;;;;;;7.65;1.42;;;21.60;70.20;;;;;;5010656;28;20021;-67